Olympus - Home of the Gods

Player Rankings - Time In-Game

Pos Name Rank Money Kills Time Online Missions Systems Bases Holes Last Login
1 [X]_Lennier 67 $49,063,634 557 245:42:52 8 128 156 320
2 [SAS]-Zeus 89 $999,501,246 98 245:40:55 0 110 151 170
3 Neroon 73 $15,221,676 924 93:24:20 21 78 55 180
4 Delenn 62 $29,552,990 370 91:57:40 9 66 41 140
5 Dodger 90 $1,878,471,397 255 84:40:52 0 59 147 128
6 MadMonkey 90 $851,723,207 472 83:01:52 34 88 178 200
7 Harmless 57 $303,540 2,832 68:57:15 152 157 290 377
8 BigMonkey 90 $302,992,848 460 61:46:35 22 70 62 156
9 Explorer 85 $25,325,295 277 60:29:10 26 54 64 120
10 Hyper_Titan 90 $893,206,903 224 59:26:19 10 155 72 349
11 surdyne 82 $247,397,519 1,261 58:33:55 115 66 137 152
12 Zack 87 $62,630,349 350 57:38:11 25 23 40 44
13 Snoopy 84 $488,502,438 1,705 56:52:26 137 50 109 106
14 Ray 83 $75,691,221 265 53:53:05 22 17 49 38
15 Silent 89 $709,016,804 685 46:59:43 64 92 222 201
16 Tar'Talon 84 $556,656,616 286 43:54:16 7 74 63 174
17 Memor 84 $402,923,911 1,513 41:40:26 106 81 93 182
18 [x]_Harlock 82 $156,792,062 813 41:21:51 87 85 154 194
19 Harry_Mud 66 $49,320,007 239 40:53:21 24 49 119 104
20 Bordoo 88 $363,686,202 1,598 39:05:57 130 77 97 179
21 SpaceMonkey 83 $90,905,033 225 38:58:55 12 45 24 96
22 KoTe 58 $6,211,392 521 36:43:26 44 48 155 98
23 logan683 88 $632,508,630 369 36:26:36 30 30 47 60
24 [SAS]~Talon 84 $529,965,675 50 35:16:30 0 50 53 86
25 Arbusch 90 $624,170,921 1,759 35:12:41 150 73 88 166
26 kestral 88 $88,768,043 1,012 35:04:18 63 57 85 120
27 Lex~Talionis 62 $25,068,223 289 34:36:18 10 61 94 140
28 [NBS]-Spike 71 $23,699,786 59 31:13:28 6 30 13 66
29 Molarii[store] 78 $8,042,609 0 29:39:20 0 8 6 12
30 Deimos 90 $825,230,546 295 29:16:46 8 71 67 163
31 Nightstalker 88 $3,278,388 615 29:11:33 0 42 39 28
32 [NBS]-Nitro 70 $10,470,032 200 29:06:58 9 57 34 124
33 BadMonkey 85 $61,651,529 182 28:00:10 14 50 27 108
34 [NBS]-Dah_Choppa 86 $43,686,698 208 25:55:38 18 45 30 100
35 [UCG]Hyschko[A] 89 $231,583,181 662 25:36:54 24 71 49 156
36 The_Lantea 90 $375,093,294 416 25:29:24 18 62 35 137
37 BudoHaul 52 $10,066,878 0 25:24:41 0 26 23 56
38 ~Talon~[R] 85 $35,697,590 208 23:06:05 7 59 21 134
39 drac[T] 60 $21,640,403 33 23:05:50 3 13 16 24
40 Decan 80 $347,828,581 224 22:55:12 18 12 33 22
41 Mars 56 $7,068,673 1,209 22:50:40 108 58 60 120
42 [NBS]-Deathdealer 77 $124,537,524 134 22:34:37 10 46 18 98
43 Yamato 89 $407,704,079 63 22:19:17 7 36 23 74
44 [SAS]-Mibtech 82 $456,238,107 58 21:22:13 7 35 27 64
45 TheUnknown 78 $23,024,282 140 21:14:34 9 32 44 70
46 Tobious 80 $75,252,569 42 20:53:53 4 39 70 80
47 Knightwolf 82 $40,688 343 20:52:33 40 20 19 32
48 FLeanut 81 $364,165,551 12 20:23:45 2 27 19 54
49 CaptBogdan 86 $245,227,795 317 19:20:12 26 41 34 82
50 -=ALEX=-Ro 81 $409,173,151 810 18:57:22 77 31 39 57
51 [NBS]-Chaser 62 $27,396,356 91 18:52:53 8 29 33 57
52 Walker 84 $127,398,776 126 18:08:13 14 26 26 54
53 Squall 80 $66,376,620 331 17:51:37 19 21 27 44
54 Baddy 86 $739,085,698 52 17:23:23 1 20 42 40
55 Dragon-X- 89 $539,805,348 267 17:03:13 11 39 46 78
56 ~Adama-Store~ 90 $1,092,501,448 66 17:01:17 7 13 23 26
57 Goldhamster 89 $777,417,908 665 16:59:51 16 89 65 202
58 Mutzu 87 $230,761,246 298 16:40:54 27 41 63 82
59 Trade-Gambit 83 $484,481,525 51 16:34:02 5 21 18 40
60 TF1}Cepheus 89 $225,532,252 19 16:09:35 1 6 4 10
61 Deke 83 $108,991,233 39 16:02:27 2 12 14 24
62 Theta-Star 83 $85,229,902 143 15:37:24 4 54 43 118
63 Khorne_Flakes 87 $192,745,124 452 14:59:45 45 38 43 87
64 Mr_Flint 75 $192,473,558 95 14:43:05 18 51 40 110
65 Cube 81 $65,081,681 148 14:22:54 7 34 41 74
66 Darkstar 84 $531,370,889 335 14:19:57 21 39 24 88
67 Budony 90 $779,039,809 334 14:18:57 19 46 46 100
68 [X]_Splinter 82 $129,384 652 14:08:37 35 50 34 106
69 Gahnnon_Talic 64 $49,940,784 46 14:07:59 3 31 31 62
70 Happy_Hero 63 $41,465,049 606 14:07:57 36 39 49 86
71 Carausul 87 $851,025,235 51 14:07:35 7 29 25 59
72 -Cmdr-Adama- 85 $58,967,776 247 13:26:39 17 38 37 74
73 ~Adama~ 88 $478,312,700 223 13:25:11 12 41 59 88
74 Flo_Ren 90 $490,295,647 32 13:22:33 2 41 32 91
75 Smoky 84 $90,298,804 333 13:11:14 27 24 41 48
76 Pluton 86 $43,566,054 325 13:03:45 29 36 37 75
77 MoneyMaker 63 $32,173,433 7 12:55:10 0 10 6 18
78 Jeff 54 $5,155,843 86 12:44:12 9 13 9 26
79 [NBS]-Bloodline 61 $24,315,602 96 12:36:16 5 14 6 26
80 Jaba 65 $35,836,401 110 12:14:31 11 10 6 18
81 Volinski 86 $664,491,759 155 12:14:10 4 41 30 86
82 drac 88 $563,855,718 359 12:12:56 35 21 42 44
83 Marcos 66 $41,232,648 22 12:12:36 2 10 7 18
84 FLinty 87 $445,702,431 66 12:09:36 5 41 38 90
85 [NBS]-Nitro- 63 $33,090,406 112 12:09:35 10 22 18 40
86 [NBS]-N!tro 55 $7,256,447 118 12:04:56 9 35 17 73
87 Andromeda 81 $386,959,198 557 11:53:18 47 32 46 70
88 Re/\peR 82 $48,930,062 470 11:39:30 29 35 35 74
89 eagle 86 $70,767,556 388 11:36:03 4 29 17 58
90 eddison 70 $91,934,330 33 11:25:24 3 10 9 18
91 EraStarHero 82 $198,923,903 20 11:17:34 0 36 56 72
92 /\_spiral_/\ 80 $99,154,342 202 11:08:03 21 26 39 57
93 MarothZhel 85 $26,873,295 104 11:02:26 8 22 33 44
94 Krekan 88 $493,622,346 123 10:51:33 3 38 29 78
95 .DRAC. 90 $806,552,512 59 10:30:11 6 21 38 42
96 Hyschko[TR] 65 $49,778,879 43 10:25:18 4 12 11 22
97 Fleanutt 85 $148,096,871 50 10:07:36 4 37 15 82
98 zingk 56 $7,603,751 64 10:06:18 6 10 27 20
99 Dworsky 80 $99,523,110 425 9:57:06 38 24 40 50
100 William_Kidd 90 $485,715,304 107 9:53:24 3 39 23 86
101 Kratos 90 $1,768,266,295 123 9:27:54 12 21 19 34
102 SilentDeath 70 $71,463,129 23 9:17:13 2 17 17 32
103 Erg_Noor 62 $40,814,174 145 9:15:43 0 16 18 32
104 GHosTShiP 85 $598,575,568 28 9:14:07 0 26 27 52
105 TheUnknown[HCR] 89 $474,257,010 84 9:13:21 3 25 17 52
106 TheUnknown[T] 64 $20,433,100 36 9:13:08 3 10 7 18
107 Mist 86 $486,937,510 119 9:08:04 11 29 29 60
108 [SAS]-Nitro 85 $9,294,679 18 9:03:05 0 32 42 16
109 Zogg 77 $234,973,804 114 8:59:25 14 9 13 16
110 [NBS]-Seattle 88 $19,511,860 124 8:49:28 8 17 8 32
111 Von_Zbabben 78 $290,635,900 361 8:49:13 44 19 39 36
112 TheUnknown[DR] 85 $549,361,483 46 8:40:01 4 19 16 40
113 [NBS]-GEORGIA 90 $524,532,976 25 8:38:12 0 16 10 30
114 Darkblade171 79 $38,880,641 0 8:13:35 0 25 18 52
115 MarothGravois 80 $83,884,203 65 8:05:09 0 21 14 42
116 Hawk 62 $16,476,746 90 8:00:27 10 17 57 34
117 CHAOSXA3R0 71 $88,129,714 230 7:59:18 14 42 27 88
118 essex 77 $224,373,849 290 7:55:44 25 36 36 76
119 Capt._Budodog 85 $60,021,694 40 7:45:48 2 31 20 66
120 Budodog 90 $23,574,706 49 7:43:00 4 9 16 16
121 Caraus 68 $64,226,798 48 7:38:35 4 13 11 24
122 Supreme_Commander_Budo 87 $93,373,397 217 7:24:01 19 18 13 36
123 KineticKhaos[CYL] 63 $31,352,683 108 7:17:23 12 19 22 39
124 Scorpion 90 $1,218,076,937 145 7:16:42 18 21 15 42
125 Withe_Eangle 72 $132,776,959 240 7:13:38 30 16 22 36
126 La_Muerte 57 $9,480,312 34 7:08:42 6 15 9 28
127 ABSOLUTE_XA3R0 66 $44,753,290 72 7:07:26 10 29 22 63
128 Lut.Hinze 61 $26,690,134 24 7:03:44 6 15 7 28
129 Nero 84 $3,585,550 60 6:55:57 7 19 20 36
130 Zimmerson 64 $55,993,008 84 6:54:01 12 14 16 26
131 [NBS]=VIPER 61 $32,371,952 84 6:53:57 13 18 12 35
132 space 90 $624,944,459 47 6:50:16 2 12 18 16
133 Admiral_Versio 88 $127,314,174 101 6:47:46 8 11 12 20
134 Magpies_Nest 80 $278,457,001 22 6:34:40 2 23 15 50
135 El_Sueno 79 $60,997,913 110 6:33:17 0 20 28 38
136 TF1}Blue_Tango 53 $3,883,529 0 6:31:15 0 13 17 22
137 Argos 90 $1,839,693,713 18 6:28:52 2 8 11 14
138 Navi 69 $73,554,529 195 6:16:44 38 15 13 26
139 DODO72-BS 86 $53,003,687 364 6:16:10 32 12 11 22
140 Someone 80 $87,640,170 185 6:16:09 12 22 20 44
141 NaughteousMAXimus 87 $308,208,060 103 6:12:54 4 17 31 32
142 Nemo 71 $101,658,155 306 6:06:23 42 15 15 26
143 robert 86 $157,246,353 47 5:52:50 8 8 7 16
144 wyrm 61 $25,621,378 49 5:51:54 0 10 10 18
145 BS_Kyritz 85 $6,068,903 9 5:40:23 0 15 24 30
146 Rhazzor 75 $198,571,032 15 5:39:32 3 12 16 22
147 [R]att 90 $749,783,152 128 5:25:27 0 28 19 56
148 Jarosław_Kaczyński 88 $12,567,202 39 5:23:16 3 17 11 32
149 NUGENT 90 $1,106,655,799 25 5:18:32 4 13 12 24
150 Daykor 84 $109,458,338 144 5:14:50 16 16 13 30
151 TheUnknown[B] 86 $155,333,762 47 5:14:36 0 15 12 30
152 La_Cinco 87 $814,531,840 27 5:14:04 2 10 5 18
153 Hela 78 $5,933,957 256 5:09:48 8 22 10 41
154 Steffi 60 $30,284,202 4 4:55:47 3 5 12 8
155 Lesan 65 $28,646,361 151 4:50:37 17 13 24 24
156 SpaceTrucker 69 $81,457,482 16 4:46:57 2 15 16 28
157 [NB$]-VIPER 89 $974,650,431 34 4:43:53 2 14 8 26
158 DODO72-(T) 77 $236,137,883 12 4:42:02 0 8 7 14
159 Flinty_T 89 $1,045,535,861 0 4:40:58 0 14 11 30
160 Proton 64 $36,234,281 34 4:34:18 3 12 15 24
161 Nick_O'Connor 41 $2,766,365 0 4:30:15 0 10 17 18
162 Foxyfan3105 79 $39,895,741 178 4:27:44 16 4 8 6
163 Sphinx 63 $18,617,603 158 4:25:55 26 8 21 14
164 Lost_in_Space 44 $3,239,675 6 4:19:33 1 19 13 38
165 FlintsViper 83 $478,876,787 34 4:09:08 2 22 19 50
166 Storage_II 73 $63,862,806 31 4:03:43 4 7 6 12
167 Hyschko[TR2] 82 $421,232,053 88 4:03:10 7 12 13 24
168 Extrader 72 $123,338,171 1 4:00:51 0 11 6 20
169 FL_01 86 $615,608,008 65 4:00:50 9 22 10 44
170 Dubhauler 56 $17,995,262 0 3:58:38 0 13 7 24
171 BogdanTrader 50 $4,298,623 68 3:55:00 6 14 10 26
172 Ikscoman 45 $1,576,657 12 3:51:29 2 6 9 10
173 Ratt 77 $250,282,854 24 3:51:08 1 11 7 22
174 Amalia 82 $134,563,799 0 3:48:30 0 5 5 8
175 HG-Lightning 58 $22,454,795 2 3:45:08 0 10 5 18
176 SHUR12312 52 $7,084,099 14 3:39:00 2 8 19 12
177 Pirat_x 88 $875,728,637 45 3:34:06 3 15 14 28
178 {GE}Boa_Pursuit 40 $2,678,950 15 3:31:43 0 3 6 4
179 SolarWinds 86 $751,373,788 17 3:29:46 0 9 10 16
180 [Blood-Legion]-Amun-Ra 88 $299,458,043 36 3:29:21 0 18 6 32
181 Admiral_Budodog 86 $3,901,389 31 3:28:14 2 20 9 38
182 zingk-cargo 69 $93,233,595 0 3:27:41 0 4 8 6
183 Tiggy 54 $15,360,445 10 3:23:55 3 10 19 19
184 Max 65 $55,773,951 80 3:21:27 6 8 10 14
185 Jinx 67 $74,298,932 23 3:18:43 3 9 8 16
186 Ubique 59 $850,130 747 3:18:34 70 3 5 4
187 cdv 38 $2,033,320 0 3:17:37 0 10 23 18
188 Mibs_uhaul 59 $26,289,041 0 3:12:47 0 8 7 14
189 DIVIDED_BY_XA3R0 85 $30,029,646 27 3:12:21 3 14 10 28
190 \spiral/ 56 $13,895,965 200 3:05:42 22 3 7 4
191 Re/-\peR 53 $647,845 112 3:02:51 6 9 16 18
192 cpt_walker 66 $71,432,739 11 3:01:50 1 5 14 8
193 KineticKhaos 62 $40,045,410 38 3:01:19 7 7 10 12
194 Vision 43 $3,154,728 3 2:57:26 0 4 11 6
195 Cowboy 55 $13,325,268 0 2:53:58 0 13 20 24
196 Dark.Phoenix 77 $259,404,345 29 2:50:31 4 14 11 28
197 Vengence 60 $8,249,348 36 2:49:02 3 12 7 22
198 XA3R0 56 $16,299,321 23 2:48:00 3 9 9 16
199 Kuze 56 $308,289 6 2:46:39 0 12 15 22
200 Capt.Rex 62 $42,250,740 0 2:43:28 0 2 3 2
201 Zal_Lorr 84 $78,440,068 66 2:42:32 9 5 6 8
202 maresith 70 $91,496,230 0 2:40:11 0 8 6 14
203 Baltag 73 $125,984,780 39 2:29:09 5 14 11 28
204 Dengar 59 $27,375,050 23 2:29:09 4 8 21 14
205 Sekshun_Ate 80 $332,734,529 28 2:28:34 0 13 9 24
206 Wilko 70 $111,073,771 8 2:21:58 3 6 10 10
207 Necromancer 88 $856,085,258 36 2:18:32 0 8 8 4
208 Loki 60 $30,969,105 0 2:18:23 0 7 7 14
209 [Blood-Legion]-Storage1 87 $817,062,130 0 2:17:30 0 8 5 10
210 kestral_t 66 $57,919,650 8 2:15:50 2 9 10 16
211 Kasumi 60 $27,933,606 0 2:14:41 0 9 9 16
212 Drake 44 $831,729 0 2:14:27 0 5 16 8
213 Neptun 58 $25,266,059 27 2:09:51 5 10 10 18
214 Viper-1 61 $14,678,799 28 2:09:15 4 11 7 20
215 Ren_Solo 61 $38,470,735 60 2:09:05 7 2 5 2
216 Rhokk 84 $28,052,903 21 2:08:02 2 12 7 22
217 CFV-Hephaestus 85 $14,963,771 50 2:06:28 1 14 4 28
218 Caprica 44 $4,996,634 0 2:05:18 0 7 7 12
219 BS_Wittstock 88 $13,625,600 24 2:04:03 0 10 9 18
220 SHUR 37 $1,166,057 0 2:03:30 0 8 9 14
221 Tila 63 $48,576,921 0 2:01:34 0 10 7 18
222 Flash8472 43 $2,756,229 0 2:01:12 0 9 5 16
223 BS_Rhinow 87 $6,103,216 34 1:57:15 0 10 6 18
224 Reaper 72 $130,136,234 0 1:54:43 0 8 9 14
225 [NBS]-VIPER 71 $50,238,775 0 1:54:36 0 4 6 6
226 [T]Top 82 $444,992,525 7 1:52:09 0 10 10 18
227 AKA_SOLDIER 44 $5,026,497 0 1:50:35 0 2 2 2
228 =Alexxassa-Rubio= 57 $20,569,272 49 1:49:05 7 6 7 12
229 PIRAMIDAFINANSOWA 64 $54,117,388 21 1:47:37 4 7 5 12
230 Sharks 45 $5,835,110 0 1:46:49 1 8 14 14
231 Husker-117 48 $2,915,727 2 1:46:48 0 8 10 14
232 remulade 57 $20,891,971 31 1:46:17 3 7 7 12
233 F 50 $7,183,223 3 1:44:28 2 5 5 8
234 Kriptonic 46 $6,325,000 3 1:42:12 1 8 6 14
235 JackHarkness 40 $2,251,233 3 1:40:12 1 7 14 12
236 Z-Trainer 65 $57,291,184 61 1:38:16 6 2 3 2
237 Frayer 44 $4,663,763 0 1:34:48 0 6 7 10
238 Jerome 36 $529 0 1:34:11 0 7 6 12
239 Rhazzor_II 71 $88,361,260 0 1:33:46 0 5 9 8
240 Monkey(Store) 77 $76,596,232 0 1:33:21 0 7 3 12
241 Guide 81 $51,594,236 0 1:32:42 0 4 3 6
242 sisko 87 $53,552,412 1 1:32:27 0 5 6 6
243 Sidh 62 $40,686,219 0 1:32:01 0 2 2 2
244 MaDproF 60 $33,534,942 55 1:30:29 8 4 5 6
245 Goblin 46 $3,703,777 25 1:29:48 1 6 8 10
246 Samhain 49 $8,688,800 2 1:27:46 1 2 5 2
247 USS_Supersoft 77 $144,785,781 3 1:24:24 0 10 11 18
248 [SAS]-Testflight 88 $237,374,337 34 1:22:43 0 11 15 0
249 Apex_018 39 $886,719 1 1:22:17 0 2 2 2
250 Trent_Rezner 34 $392,224 94 1:20:27 8 2 5 2
251 Omega_7 54 $11,534,563 40 1:18:42 4 3 4 4
252 ExPEND-able 31 $3,602 0 1:17:47 0 1 2 0
253 Newerwinter(Rus) 27 $1,071 0 1:17:01 0 5 3 8
254 [Blood-Legion]-Zeus 85 $14,605,320 9 1:16:48 1 21 12 26
255 [DAS7}Reaper] 79 $326,743,474 0 1:15:47 0 8 8 14
256 Masie_Moo 65 $58,554,355 0 1:15:15 0 7 6 12
257 dkp1 53 $29,508 14 1:13:42 3 8 7 14
258 Eagle2828 55 $17,229,415 25 1:13:17 4 4 6 6
259 Eizen 80 $68,657,637 18 1:12:19 1 5 5 8
260 justin 46 $4,860,960 15 1:08:54 3 4 4 6
261 Shadowops 27 $482,572 5 1:06:16 0 4 3 6
262 Capt._James_Riker 53 $11,888,627 27 1:05:21 3 3 4 4
263 [X]Darkstar 60 $24,154,045 63 1:04:01 7 4 5 6
264 asd 42 $1,629 1 1:03:17 0 3 6 4
265 Zeus 89 $979,809,817 0 1:02:20 0 18 10 24
266 dreic23 59 $28,195,872 20 1:01:40 5 2 5 2
267 Nivur82 41 $1,702,858 2 1:01:17 0 4 4 6
268 lRyujinl 45 $3,656,393 7 0:59:38 1 5 7 8
269 Black_Wolf 49 $6,770,630 0 0:58:50 0 2 3 2
270 jim 42 $3,569,464 9 0:53:55 0 4 4 6
271 iksbaltar 44 $3,538,631 10 0:53:50 0 2 6 2
272 SHUR2112 47 $5,256,229 0 0:53:05 0 3 6 4
273 Mastercodeon 37 $154,940 1 0:52:10 0 3 5 4
274 [NBS]-Vengence 43 $4,049,594 0 0:52:01 0 4 5 6
275 Malan 85 $146,033,202 48 0:51:44 4 4 4 6
276 Wraith 55 $16,361,332 24 0:51:35 4 2 8 2
277 Steron 47 $4,628,130 33 0:50:29 3 2 4 2
278 Riichard63 43 $2,915,097 1 0:47:34 0 3 4 4
279 Euvr6 39 $962,256 0 0:46:49 0 4 4 6
280 Bhresic 50 $9,266,926 0 0:44:35 0 1 2 0
281 Ashcolt 34 $14,799 0 0:42:52 0 3 7 4
282 Donovan 44 $4,673,199 0 0:42:12 0 5 3 8
283 Kvazar 50 $10,434,033 0 0:41:56 0 3 3 4
284 Raoul_Duke 40 $486,472 1 0:41:50 0 2 3 2
285 Angelus 48 $7,939,607 10 0:41:42 1 2 4 2
286 Domin8orify 43 $4,200,030 1 0:41:34 0 6 4 10
287 Shappy 42 $3,523,915 0 0:40:15 0 3 6 4
288 Feniks77 36 $644 0 0:38:51 0 2 3 2
289 Bob 56 $19,764,575 17 0:38:36 3 2 2 2
290 Mike_Brand 43 $1,948,578 0 0:38:36 0 3 5 4
291 siperdrp000 43 $2,580,634 2 0:38:33 0 2 5 2
292 Neutron_III 46 $4,815,030 0 0:38:06 0 3 3 4
293 RASPYTIN(RUS) 35 $935,030 0 0:37:35 0 5 3 8
294 Revio 43 $3,394,694 0 0:36:47 0 2 3 2
295 **ZGK** 43 $1,532,669 0 0:36:29 0 2 2 2
296 Eztri 44 $4,743,705 0 0:36:28 0 3 4 4
297 N7242C|Husker 39 $824,188 4 0:35:20 0 5 5 8
298 TrekMan 44 $4,554,523 0 0:35:00 0 2 3 2
299 Puddleflop 40 $2,583,893 0 0:34:50 0 2 4 2
300 Sinko_DK_ 44 $5,000,000 0 0:34:04 0 2 4 2
301 Sharp 42 $3,596,765 0 0:33:49 0 1 2 0
302 DreamCatcher 54 $15,718,830 0 0:33:28 0 4 4 6
303 Zoner 44 $4,900,950 0 0:32:56 0 6 3 10
304 Zog 44 $5,000,000 0 0:32:38 0 1 1 0
305 HG-GloriousHeritage 51 $11,468,463 5 0:32:17 2 2 4 2
306 [Blood-Legion]-Anubis 82 $42,281,393 8 0:32:05 0 5 6 2
307 g 57 $22,217,237 18 0:31:18 3 2 4 2
308 monkey_trader 42 $3,301,253 0 0:30:46 0 3 5 4
309 Besenyő_Pista_Bácsi 51 $7,059,779 26 0:30:43 4 2 2 2
310 Paragoz_amk 43 $542,049 0 0:30:39 0 6 3 10
311 аа 43 $633,365 0 0:30:20 0 2 5 2
312 Jane 42 $3,315,588 0 0:28:52 0 1 1 0
313 Todelmer 44 $5,000,000 0 0:28:44 0 2 5 2
314 celestrele 34 $8 3 0:28:14 0 2 2 2
315 Kam 43 $2,798,697 0 0:28:03 0 4 6 6
316 nivur 42 $1,466,169 0 0:27:41 0 3 5 4
317 spiral 59 $22,541,763 29 0:27:29 3 2 3 2
318 Red6ft10 43 $2,780,200 0 0:26:38 0 2 3 2
319 Erast 43 $3,983,145 0 0:26:20 0 1 1 0
320 SF_Havelaue 44 $5,000,000 0 0:25:53 0 2 3 2
321 -=ALEX=-R0 53 $12,747,262 0 0:25:52 0 4 2 6
322 david 40 $340,010 0 0:25:47 0 2 2 2
323 SF_Muertos 78 $21,813,200 10 0:24:10 2 2 2 2
324 The_Shark 44 $5,065,636 0 0:23:50 0 4 4 6
325 Cotikbattle 43 $4,373,070 3 0:23:50 0 2 4 2
326 DrViktor 45 $4,760,708 0 0:22:03 0 1 2 0
327 GladiaThor 44 $5,000,000 0 0:21:29 0 2 5 2
328 VisionBleak 39 $551,861 0 0:21:01 0 3 2 4
329 4qa 43 $394,699 1 0:21:00 0 3 2 4
330 hunter 47 $6,902,427 6 0:20:59 1 2 3 2
331 Tom.Skinner 54 $15,024,229 23 0:20:38 3 2 3 2
332 Kiyohime-maru 59 $24,849,728 0 0:20:34 0 2 5 2
333 SilentHunter 44 $5,073,900 0 0:20:08 0 2 5 2
334 Inquisitor 43 $2,820,702 0 0:19:40 0 2 2 2
335 Thor 36 $91,046 0 0:19:26 0 2 2 2
336 StarBomber 44 $4,220,764 1 0:19:19 0 2 4 2
337 Maroth 44 $5,000,000 0 0:19:18 0 2 2 2
338 123s 40 $2,276,669 0 0:19:12 0 2 3 2
339 James_Spaider 43 $3,648,015 0 0:18:58 0 3 3 4
340 DREIC24 40 $1,464,748 0 0:18:42 0 2 4 2
341 bsg 44 $5,000,000 0 0:18:31 0 4 1 6
342 Proton_II 43 $3,527,900 0 0:18:16 0 3 3 4
343 Capt._Michael_Kemmore 44 $4,958,000 0 0:18:00 0 2 4 2
344 Viktor_Navorski 43 $3,074,649 0 0:17:00 0 4 2 6
345 Ya 43 $4,358,183 6 0:16:52 0 3 4 4
346 Zeke 43 $547,335 0 0:16:42 0 2 2 2
347 4к4 43 $3,793,960 0 0:16:03 0 2 3 2
348 just1969bad 36 $128,046 1 0:15:31 0 2 3 2
349 Sabbath 43 $1,565,283 0 0:15:24 0 2 3 2
350 Rach 43 $2,924,205 0 0:15:22 0 2 3 2
351 Shinzhon 39 $886,719 0 0:15:14 0 2 2 2
352 jedi_knight 38 $1,122,035 1 0:14:49 0 2 2 2
353 Kuku 43 $4,250,871 0 0:13:34 0 2 3 2
354 LGTHR 44 $5,009,164 0 0:13:13 0 3 3 4
355 Cixlysid 44 $5,000,000 0 0:12:46 0 1 2 0
356 ZappZip 44 $5,000,000 0 0:12:31 0 2 3 2
357 leifen 37 $369,413 0 0:12:00 0 2 2 2
358 Commander 46 $4,458,022 4 0:11:56 1 3 3 4
359 Argelo 44 $4,485,454 3 0:11:42 1 2 2 2
360 Edison_Trent 44 $2,806,230 4 0:11:42 1 2 2 2
361 12312 44 $4,998,138 1 0:11:39 0 3 2 4
362 icarius 43 $2,798,697 0 0:11:33 0 2 3 2
363 Noodles 44 $5,000,000 0 0:11:33 0 2 2 2
364 Bloser 44 $5,000,000 0 0:11:28 0 2 3 2
365 X 44 $5,000,000 0 0:11:16 0 2 2 2
366 ModoMars 42 $2,108,697 0 0:11:11 0 2 3 2
367 Droelf87 39 $1,051,251 0 0:11:05 0 2 3 2
368 ZionVibes 36 $128,046 0 0:10:49 0 1 1 0
369 Feniks 36 $368,722 0 0:10:32 0 1 1 0
370 chappy1 44 $4,416,813 0 0:10:23 0 2 2 2
371 Vision88 44 $5,000,000 0 0:09:55 0 1 2 0
372 Dennis 36 $214,322 0 0:09:35 0 1 1 0
373 1234 44 $5,000,000 0 0:08:59 0 2 3 2
374 dkrcaxd 44 $5,000,000 0 0:08:48 0 1 2 0
375 dark 43 $2,924,229 0 0:08:44 0 2 2 2
376 Beta 44 $5,000,000 1 0:08:39 0 2 4 2
377 HELL 42 $2,118,458 2 0:08:39 0 2 2 2
378 Caliosari 43 $4,440,716 0 0:08:34 0 1 1 0
379 [NBS]-Deathdeal 44 $5,000,000 0 0:08:27 0 1 1 0
380 ВАСЬКА_ИБН_КАЗАК 44 $4,984,150 0 0:08:08 0 1 1 0
381 Commander_Alex 42 $1,645,920 0 0:08:07 0 2 1 2
382 [Blood-Legion]CptKlink 43 $2,923,229 1 0:08:07 0 2 2 2
383 ChiefLocke 44 $5,000,000 0 0:07:53 0 1 1 0
384 Insomnia 44 $5,000,000 0 0:07:48 0 2 1 2
385 Matrix 44 $4,974,000 0 0:07:37 0 1 1 0
386 СукаНахуй 44 $5,000,000 0 0:07:25 0 2 1 2
387 Sermon 43 $1,532,669 0 0:07:20 0 2 2 2
388 Lisa 43 $45,944 0 0:07:13 0 2 2 2
389 StarViper 43 $3,836,519 0 0:06:14 0 1 2 0
390 Loco 44 $5,000,000 0 0:05:57 0 2 2 2
391 ZGK-Battleship 44 $5,000,000 0 0:05:55 0 2 2 2
392 Mephisto 44 $5,000,000 0 0:05:51 0 2 2 2
393 new001 44 $5,000,000 0 0:05:50 0 1 2 0
394 Ranger 44 $5,000,000 0 0:05:40 0 1 1 0
395 =XA=BlackDragon 44 $5,000,000 0 0:05:01 0 1 1 0
396 VIPER 44 $5,000,000 0 0:04:59 0 1 1 0
397 ICE 44 $5,000,000 0 0:04:10 0 1 1 0
398 RustyBIrd 42 $3,169,154 0 0:04:03 0 2 1 2
399 Todd_Allen 44 $5,000,000 0 0:03:39 0 2 1 2
400 z 44 $5,000,000 0 0:03:29 0 2 3 2
401 Jack-Harkness 44 $5,000,000 0 0:03:22 0 1 1 0
402 Trent 44 $5,000,000 0 0:03:04 0 1 1 0
403 Blitzz 44 $5,000,000 0 0:02:52 0 1 1 0
404 AlexBrady 44 $5,000,000 0 0:02:47 0 1 2 0
405 gggggg 44 $5,000,000 0 0:02:43 0 1 1 0
406 kiblax 44 $5,000,000 0 0:02:28 0 1 1 0
407 PureEvil 44 $5,000,000 0 0:02:21 0 1 1 0
408 Starter 44 $5,000,000 0 0:02:11 0 1 1 0
409 Yumyum 44 $5,000,000 0 0:01:59 0 1 1 0
410 AnthonyR1715 44 $5,000,000 0 0:01:59 0 1 1 0
411 KineticKhaos* 44 $5,000,000 0 0:01:56 0 1 1 0
412 bum 44 $5,000,000 0 0:01:54 0 1 1 0
413 ThetaStar 44 $5,000,000 0 0:01:47 0 1 1 0
414 icarius1701 44 $5,000,000 0 0:01:37 0 1 1 0
415 Jaal 44 $5,000,000 0 0:01:27 0 1 2 0
416 dkp2 44 $5,000,000 0 0:01:08 0 1 2 0
417 Fishman 44 $5,000,000 0 0:00:55 0 1 1 0
418 zolack 44 $5,000,000 0 0:00:48 0 1 1 0
419 123 44 $5,000,000 0 0:00:38 0 1 1 0
420 Precorus 44 $5,000,000 0 0:00:36 0 1 1 0
421 [SGS]One 44 $5,000,000 0 0:00:19 0 1 1 0
422 Wyvern 44 $5,000,000 0 0:00:10 0 1 1 0
423 trgfdgdfgd 44 $5,000,000 0 0:00:05 0 1 1 0